Socorro, New Mexico
Current Conditions -  °F | °C
As of 10:35 AM on Tuesday 21 Oct 2014 (Local Time) from KONM Reporting Station
Scattered Clouds Scattered Clouds  
Wind Chill: 59°   Ceiling: Unl
Heat Index: 59°   Visibility: 10mi
Dew Point: 50°   Wind: 5mph
Humidity: 72%   Direction: 10°N
Pressure: 30.16"   Gusts: NA
Location:  34.06°N, 106.89°W
Report Text: KONM 211635Z AUTO 01004KT 10SM SCT090 15/10 A3016 RMK AO2 T01490099
Loading
Personal Weather Stations






























Interactive Weather Map
Tropical Storm Tracking
New forecast layout! Learn more

10-Day Weather Forecast

Advertisements
Track Severe Weather on mobile